Time;durP1;ratioP1;P1;durP2;ratioP2;P2;SDS_P1;SDS_P2;PMS_P1;PMS_P2;Temp;Humidity;BMP_temperature;BMP_pressure;BME280_temperature;BME280_humidity;BME280_pressure;Samples;Min_cycle;Max_cycle;Signal;HPM_P1;HPM_P2
2022/07/23 00:01:28;;;;;;;8.07;6.37;;;26.20;84.30;;;;;;5053707;28;21040;-58
2022/07/23 00:03:55;;;;;;;7.90;5.77;;;26.10;84.80;;;;;;5054370;28;20485;-59
2022/07/23 00:06:23;;;;;;;5.97;5.47;;;26.10;85.60;;;;;;5054272;28;20449;-59
2022/07/23 00:08:51;;;;;;;7.70;5.83;;;26.00;85.40;;;;;;5053634;28;20949;-59
2022/07/23 00:11:21;;;;;;;6.83;6.23;;;26.00;86.00;;;;;;5054360;28;20821;-59
2022/07/23 00:13:49;;;;;;;6.00;5.40;;;25.90;86.20;;;;;;5054241;28;20430;-59
2022/07/23 00:16:16;;;;;;;6.13;5.60;;;26.00;86.40;;;;;;5054154;28;20445;-61
2022/07/23 00:18:43;;;;;;;6.10;5.60;;;25.90;87.10;;;;;;5054229;28;20445;-59
2022/07/23 00:21:10;;;;;;;6.90;6.30;;;25.90;86.50;;;;;;5053616;28;20552;-59
2022/07/23 00:23:38;;;;;;;5.77;5.20;;;;;;;;;;5053558;28;20909;-59
2022/07/23 00:26:07;;;;;;;6.33;5.83;;;25.90;86.40;;;;;;5054030;28;20806;-59
2022/07/23 00:28:36;;;;;;;6.10;5.60;;;25.80;86.80;;;;;;5053955;28;20446;-59
2022/07/23 00:31:03;;;;;;;7.93;6.20;;;25.70;87.20;;;;;;5053763;28;20503;-59
2022/07/23 00:33:30;;;;;;;5.70;5.30;;;25.80;87.70;;;;;;5053322;28;20452;-60
2022/07/23 00:35:57;;;;;;;6.43;5.93;;;25.70;87.40;;;;;;5053484;28;20445;-59
2022/07/23 00:38:25;;;;;;;9.03;5.80;;;25.70;88.00;;;;;;5053532;28;20539;-59
2022/07/23 00:40:52;;;;;;;7.00;6.30;;;25.60;88.00;;;;;;5053265;28;20485;-59
2022/07/23 00:43:21;;;;;;;9.03;5.87;;;25.40;89.30;;;;;;5053347;28;20525;-60
2022/07/23 00:45:50;;;;;;;6.47;5.93;;;25.40;91.00;;;;;;5053151;28;20487;-60
2022/07/23 00:48:17;;;;;;;6.10;5.60;;;25.20;93.30;;;;;;5053515;28;20868;-60
2022/07/23 00:50:44;;;;;;;6.20;5.63;;;25.10;92.60;;;;;;5053260;28;20465;-60
2022/07/23 00:53:12;;;;;;;7.10;6.33;;;24.80;93.10;;;;;;5053254;28;20540;-60
2022/07/23 00:55:39;;;;;;;5.73;5.23;;;24.80;94.80;;;;;;5053063;28;20436;-60
2022/07/23 00:58:07;;;;;;;6.87;6.27;;;24.70;95.10;;;;;;5053149;28;20455;-60
2022/07/23 01:00:35;;;;;;;5.87;5.37;;;24.70;94.60;;;;;;5053256;28;20475;-60
2022/07/23 01:03:03;;;;;;;5.40;5.00;;;24.70;94.20;;;;;;5052984;28;20540;-60
2022/07/23 01:05:31;;;;;;;6.33;5.73;;;24.50;94.50;;;;;;5052976;28;20477;-60
2022/07/23 01:07:58;;;;;;;6.80;6.20;;;24.60;95.10;;;;;;5052899;28;20456;-60
2022/07/23 01:10:31;;;;;;;6.17;5.60;;;24.50;94.70;;;;;;5053213;28;20472;-60
2022/07/23 01:12:59;;;;;;;5.30;4.80;;;24.40;95.10;;;;;;5052185;28;20440;-60
2022/07/23 01:15:26;;;;;;;6.13;5.63;;;24.50;94.40;;;;;;5053228;28;20548;-60
2022/07/23 01:17:54;;;;;;;8.27;6.40;;;24.50;94.60;;;;;;5052734;28;20449;-60
2022/07/23 01:20:23;;;;;;;6.90;5.33;;;24.50;95.10;;;;;;5052556;28;20557;-60
2022/07/23 01:22:52;;;;;;;5.80;5.37;;;24.70;94.30;;;;;;5053084;28;20449;-60
2022/07/23 01:25:20;;;;;;;8.07;6.23;;;24.80;94.20;;;;;;5052513;28;20931;-60
2022/07/23 01:27:47;;;;;;;5.37;4.90;;;24.70;94.00;;;;;;5052515;28;20957;-60
2022/07/23 01:30:15;;;;;;;6.33;5.70;;;24.70;94.10;;;;;;5052641;28;21062;-60
2022/07/23 01:32:42;;;;;;;5.97;5.47;;;24.70;94.40;;;;;;5052954;28;20481;-59
2022/07/23 01:35:10;;;;;;;5.93;5.43;;;24.40;94.60;;;;;;5052688;28;20889;-60
2022/07/23 01:37:38;;;;;;;6.30;5.30;;;24.50;94.80;;;;;;5052685;28;20445;-60
2022/07/23 01:40:07;;;;;;;6.73;6.13;;;24.40;95.10;;;;;;5052366;28;20564;-60
2022/07/23 01:42:36;;;;;;;6.03;5.43;;;24.40;95.00;;;;;;5052464;28;20520;-60
2022/07/23 01:45:07;;;;;;;5.63;5.20;;;24.40;95.30;;;;;;5052685;28;20553;-60
2022/07/23 01:47:34;;;;;;;5.67;5.00;;;24.50;95.10;;;;;;5052512;28;20436;-60
2022/07/23 01:50:01;;;;;;;6.20;5.40;;;24.50;95.30;;;;;;5052623;28;20552;-60
2022/07/23 01:52:29;;;;;;;5.73;5.23;;;24.50;95.20;;;;;;5052254;28;20445;-60
2022/07/23 01:54:56;;;;;;;6.60;5.83;;;24.40;95.10;;;;;;5052394;28;20639;-60
2022/07/23 01:57:24;;;;;;;6.90;6.30;;;24.40;95.60;;;;;;5052301;28;20453;-59
2022/07/23 01:59:51;;;;;;;5.63;5.13;;;24.40;95.70;;;;;;5052165;28;20552;-60
2022/07/23 02:02:19;;;;;;;5.50;5.00;;;24.50;95.20;;;;;;5052340;28;20481;-60
2022/07/23 02:04:46;;;;;;;6.20;5.77;;;24.60;95.10;;;;;;5052795;28;20480;-60
2022/07/23 02:07:13;;;;;;;6.47;5.60;;;24.50;95.40;;;;;;5052202;28;20941;-59
2022/07/23 02:09:40;;;;;;;6.10;5.50;;;24.30;95.60;;;;;;5052407;28;20569;-60
2022/07/23 02:12:07;;;;;;;6.13;5.60;;;24.30;95.80;;;;;;5052210;28;20464;-60
2022/07/23 02:14:36;;;;;;;6.53;5.93;;;24.20;96.10;;;;;;5052394;28;20448;-60
2022/07/23 02:17:03;;;;;;;6.10;5.50;;;24.20;96.40;;;;;;5052378;28;20466;-60
2022/07/23 02:19:30;;;;;;;5.40;5.00;;;24.10;96.80;;;;;;5052388;28;20892;-60
2022/07/23 02:21:57;;;;;;;5.93;5.43;;;24.10;96.50;;;;;;5052321;28;20459;-60
2022/07/23 02:24:25;;;;;;;5.70;5.27;;;24.20;96.10;;;;;;5053307;28;20487;-60
2022/07/23 02:26:52;;;;;;;6.57;6.07;;;24.30;96.10;;;;;;5056113;28;20483;-60
2022/07/23 02:29:19;;;;;;;5.90;5.40;;;24.40;96.00;;;;;;5055808;28;20453;-60
2022/07/23 02:31:47;;;;;;;6.00;5.50;;;24.40;95.90;;;;;;5056141;28;20986;-60
2022/07/23 02:34:15;;;;;;;6.40;5.80;;;24.30;96.20;;;;;;5056137;28;20779;-60
2022/07/23 02:36:42;;;;;;;8.47;7.63;;;24.40;96.50;;;;;;5055754;28;20449;-59
2022/07/23 02:39:09;;;;;;;5.90;5.40;;;24.30;96.60;;;;;;5055845;28;20453;-60
2022/07/23 02:41:36;;;;;;;5.57;5.10;;;24.10;97.20;;;;;;5055748;28;20559;-60
2022/07/23 02:44:04;;;;;;;6.93;6.37;;;24.00;97.10;;;;;;5055946;28;20775;-60
2022/07/23 02:46:31;;;;;;;6.53;5.97;;;23.90;97.40;;;;;;5055523;28;20568;-60
2022/07/23 02:48:59;;;;;;;6.13;5.60;;;23.90;97.80;;;;;;5056018;28;20540;-60
2022/07/23 02:51:26;;;;;;;6.60;6.00;;;23.90;97.60;;;;;;5055416;28;20469;-59
2022/07/23 02:53:53;;;;;;;5.80;5.30;;;23.90;97.60;;;;;;5055737;28;20536;-59
2022/07/23 02:56:21;;;;;;;6.17;5.67;;;23.90;97.60;;;;;;5055491;28;20445;-59
2022/07/23 02:58:48;;;;;;;7.77;6.63;;;23.90;97.70;;;;;;5055655;28;20472;-59
2022/07/23 03:01:15;;;;;;;5.40;5.00;;;23.90;97.80;;;;;;5055675;28;20465;-60
2022/07/23 03:03:42;;;;;;;6.13;5.63;;;23.80;98.10;;;;;;5055439;28;20453;-60
2022/07/23 03:06:11;;;;;;;6.00;5.50;;;23.70;98.30;;;;;;5055166;28;20544;-60
2022/07/23 03:08:38;;;;;;;6.53;5.80;;;23.70;98.50;;;;;;5054985;28;20441;-60
2022/07/23 03:11:07;;;;;;;5.90;5.40;;;23.80;98.40;;;;;;5055523;28;20561;-60
2022/07/23 03:13:34;;;;;;;5.97;5.47;;;23.80;98.40;;;;;;5055524;28;20460;-60
2022/07/23 03:16:02;;;;;;;5.93;5.37;;;23.80;98.70;;;;;;5055346;28;20533;-60
2022/07/23 03:18:29;;;;;;;5.80;5.20;;;23.80;98.90;;;;;;5054977;28;20477;-60
2022/07/23 03:20:56;;;;;;;6.50;6.00;;;23.80;99.00;;;;;;5054952;28;20826;-60
2022/07/23 03:23:24;;;;;;;6.33;5.83;;;23.70;99.30;;;;;;5055037;28;20434;-59
2022/07/23 03:25:51;;;;;;;5.67;5.20;;;23.70;99.60;;;;;;5055107;28;20476;-59
2022/07/23 03:28:19;;;;;;;5.90;5.30;;;23.70;99.60;;;;;;5054901;28;20450;-60
2022/07/23 03:30:48;;;;;;;5.90;5.40;;;23.70;99.70;;;;;;5054986;28;20471;-59
2022/07/23 03:33:16;;;;;;;6.97;6.37;;;23.70;99.90;;;;;;5054861;28;20806;-60
2022/07/23 03:35:44;;;;;;;5.60;5.13;;;23.70;99.80;;;;;;5054261;28;20520;-59
2022/07/23 03:38:11;;;;;;;6.37;5.73;;;23.60;99.90;;;;;;5054922;28;20433;-59
2022/07/23 03:40:40;;;;;;;6.60;5.97;;;23.70;99.90;;;;;;5054395;28;20579;-59
2022/07/23 03:43:07;;;;;;;6.07;5.27;;;23.60;99.90;;;;;;5054928;28;20536;-60
2022/07/23 03:45:34;;;;;;;6.40;5.80;;;23.50;99.90;;;;;;5054985;28;20831;-60
2022/07/23 03:48:01;;;;;;;6.47;5.97;;;23.50;99.90;;;;;;5054728;28;20540;-60
2022/07/23 03:50:28;;;;;;;5.87;5.37;;;23.50;99.90;;;;;;5054702;28;20476;-60
2022/07/23 03:52:56;;;;;;;5.87;5.37;;;23.40;99.90;;;;;;5054829;28;20544;-60
2022/07/23 03:55:23;;;;;;;6.40;5.80;;;23.40;99.90;;;;;;5054499;28;20449;-60
2022/07/23 03:57:51;;;;;;;7.30;6.60;;;23.50;99.90;;;;;;5054931;28;20868;-60
2022/07/23 04:00:19;;;;;;;7.00;6.30;;;23.60;99.90;;;;;;5054768;28;20475;-59
2022/07/23 04:02:46;;;;;;;6.50;5.90;;;23.60;99.90;;;;;;5054608;28;20449;-59
2022/07/23 04:05:13;;;;;;;5.73;5.23;;;23.50;99.90;;;;;;5054596;28;20503;-59
2022/07/23 04:07:40;;;;;;;5.53;5.03;;;23.40;99.90;;;;;;5054724;28;20449;-59
2022/07/23 04:10:09;;;;;;;7.73;7.03;;;23.40;99.90;;;;;;5054540;28;20580;-59
2022/07/23 04:12:36;;;;;;;8.63;6.53;;;23.40;99.90;;;;;;5054454;28;20449;-60
2022/07/23 04:15:08;;;;;;;7.03;6.43;;;23.50;99.90;;;;;;5054340;28;20438;-60
2022/07/23 04:17:35;;;;;;;7.90;7.20;;;23.50;99.90;;;;;;5054184;28;20433;-60
2022/07/23 04:20:02;;;;;;;6.50;5.90;;;23.50;99.90;;;;;;5054320;28;20472;-59
2022/07/23 04:22:29;;;;;;;6.37;5.87;;;23.50;99.90;;;;;;5054489;28;20540;-60
2022/07/23 04:24:56;;;;;;;5.97;5.37;;;23.70;99.90;;;;;;5054228;28;20453;-60
2022/07/23 04:27:24;;;;;;;7.13;6.53;;;23.60;99.90;;;;;;5053931;28;20524;-60
2022/07/23 04:29:51;;;;;;;7.03;6.50;;;23.70;99.90;;;;;;5054219;28;20519;-60
2022/07/23 04:32:19;;;;;;;6.13;5.63;;;23.60;99.90;;;;;;5054176;28;20449;-60
2022/07/23 04:34:46;;;;;;;9.63;6.70;;;23.70;99.90;;;;;;5054063;28;20453;-60
2022/07/23 04:37:14;;;;;;;6.37;5.87;;;23.70;99.90;;;;;;5053883;28;20928;-60
2022/07/23 04:39:41;;;;;;;9.10;6.53;;;23.70;99.90;;;;;;5053853;28;20564;-59
2022/07/23 04:42:08;;;;;;;6.23;5.73;;;23.60;99.90;;;;;;5053536;28;20883;-59
2022/07/23 04:44:35;;;;;;;6.53;6.00;;;23.70;99.90;;;;;;5054032;28;20548;-59
2022/07/23 04:47:02;;;;;;;8.60;6.40;;;23.70;99.90;;;;;;5053161;28;20620;-60
2022/07/23 04:49:31;;;;;;;6.67;6.07;;;23.80;99.90;;;;;;5052894;28;20519;-60
2022/07/23 04:51:58;;;;;;;6.77;6.17;;;23.80;99.90;;;;;;5053739;28;20456;-60
2022/07/23 04:54:25;;;;;;;6.80;5.73;;;23.80;99.90;;;;;;5053600;28;20536;-60
2022/07/23 04:56:52;;;;;;;6.60;6.00;;;23.80;99.90;;;;;;5053583;28;20450;-60
2022/07/23 04:59:20;;;;;;;6.63;6.03;;;23.70;99.90;;;;;;5053187;28;20536;-60
2022/07/23 05:01:47;;;;;;;6.80;6.20;;;23.80;99.90;;;;;;5053725;28;20477;-60
2022/07/23 05:04:14;;;;;;;6.37;5.77;;;23.90;99.90;;;;;;5053326;28;20444;-60
2022/07/23 05:06:43;;;;;;;6.70;6.03;;;;;;;;;;5053158;28;20944;-59
2022/07/23 05:09:10;;;;;;;6.60;6.00;;;24.10;99.90;;;;;;5053369;28;20514;-60
2022/07/23 05:11:37;;;;;;;6.50;6.00;;;24.00;99.90;;;;;;5053467;28;20451;-59
2022/07/23 05:14:04;;;;;;;6.60;5.90;;;24.00;99.90;;;;;;5053028;28;21004;-59
2022/07/23 05:16:32;;;;;;;9.00;6.33;;;24.10;99.90;;;;;;5053198;28;20499;-60
2022/07/23 05:18:59;;;;;;;6.83;6.10;;;24.10;99.90;;;;;;5053232;28;20452;-59
2022/07/23 05:21:26;;;;;;;6.57;5.97;;;24.10;99.90;;;;;;5053170;28;20556;-59
2022/07/23 05:23:54;;;;;;;7.10;6.40;;;24.00;99.90;;;;;;5053088;28;20453;-59
2022/07/23 05:26:22;;;;;;;6.47;5.87;;;24.10;99.90;;;;;;5053059;28;20485;-59
2022/07/23 05:28:49;;;;;;;7.80;5.83;;;24.10;99.90;;;;;;5052948;28;20449;-60
2022/07/23 05:31:16;;;;;;;6.30;5.80;;;24.20;99.90;;;;;;5053051;28;20469;-60
2022/07/23 05:33:43;;;;;;;6.70;6.10;;;24.30;99.90;;;;;;5052921;28;20445;-60
2022/07/23 05:36:11;;;;;;;7.13;5.93;;;24.20;99.90;;;;;;5052832;28;20503;-59
2022/07/23 05:38:38;;;;;;;7.80;7.00;;;24.30;99.90;;;;;;5052842;28;20445;-60
2022/07/23 05:41:07;;;;;;;6.80;6.20;;;24.40;99.90;;;;;;5052391;28;20973;-59
2022/07/23 05:43:34;;;;;;;7.23;6.57;;;24.40;99.90;;;;;;5052768;28;20456;-59
2022/07/23 05:46:01;;;;;;;7.27;6.57;;;24.30;99.90;;;;;;5052882;28;20564;-59
2022/07/23 05:48:28;;;;;;;6.93;5.83;;;24.40;99.90;;;;;;5052869;28;20449;-61
2022/07/23 05:50:55;;;;;;;7.70;5.83;;;24.50;99.90;;;;;;5052632;28;20500;-60
2022/07/23 05:53:23;;;;;;;6.27;5.67;;;24.50;99.90;;;;;;5053017;28;20499;-60
2022/07/23 05:55:50;;;;;;;7.33;6.40;;;24.60;99.90;;;;;;5052771;28;20481;-60
2022/07/23 05:58:18;;;;;;;7.50;6.90;;;24.70;99.90;;;;;;5052680;28;20540;-60
2022/07/23 06:00:45;;;;;;;6.20;5.70;;;24.60;99.60;;;;;;5056398;28;20895;-59
2022/07/23 06:03:12;;;;;;;7.07;6.37;;;24.70;99.40;;;;;;5056892;28;20790;-60
2022/07/23 06:05:40;;;;;;;7.07;6.47;;;24.80;99.40;;;;;;5056738;28;20471;-60
2022/07/23 06:08:07;;;;;;;6.70;6.13;;;24.60;99.50;;;;;;5056914;28;20445;-60
2022/07/23 06:10:34;;;;;;;6.53;6.00;;;24.60;99.50;;;;;;5057073;28;20476;-60
2022/07/23 06:13:02;;;;;;;7.53;6.93;;;24.60;99.40;;;;;;5056890;28;20567;-60
2022/07/23 06:15:30;;;;;;;7.30;6.70;;;24.60;99.90;;;;;;5056775;28;20454;-60
2022/07/23 06:17:57;;;;;;;6.30;5.80;;;24.70;99.90;;;;;;5056680;28;20445;-60
2022/07/23 06:20:25;;;;;;;7.00;6.40;;;24.80;99.90;;;;;;5056718;28;20473;-61
2022/07/23 06:22:52;;;;;;;7.20;6.60;;;25.00;99.90;;;;;;5056606;28;20552;-60
2022/07/23 06:25:20;;;;;;;7.33;6.73;;;25.10;99.90;;;;;;5056691;28;20532;-59
2022/07/23 06:27:47;;;;;;;7.63;6.90;;;25.10;99.50;;;;;;5056682;28;20524;-59
2022/07/23 06:30:17;;;;;;;7.13;6.53;;;25.10;99.60;;;;;;5056252;28;20469;-60
2022/07/23 06:32:45;;;;;;;6.33;5.83;;;25.20;99.00;;;;;;5056628;28;20851;-60
2022/07/23 06:35:12;;;;;;;7.50;6.90;;;25.20;98.70;;;;;;5056270;28;20507;-59
2022/07/23 06:37:40;;;;;;;7.33;6.30;;;25.20;98.70;;;;;;5056032;28;20445;-59
2022/07/23 06:40:08;;;;;;;7.90;7.10;;;25.30;98.70;;;;;;5055824;28;20527;-59
2022/07/23 06:42:36;;;;;;;6.90;6.40;;;25.10;99.10;;;;;;5056038;28;20957;-59
2022/07/23 06:45:04;;;;;;;7.23;6.63;;;25.10;99.00;;;;;;5056216;28;20500;-59
2022/07/23 06:47:31;;;;;;;6.73;6.13;;;25.20;99.10;;;;;;5056017;28;20488;-59
2022/07/23 06:49:59;;;;;;;7.50;6.80;;;25.40;99.10;;;;;;5055862;28;20471;-61
2022/07/23 06:52:27;;;;;;;6.60;6.10;;;25.40;98.70;;;;;;5055739;28;20449;-59
2022/07/23 06:54:54;;;;;;;7.63;6.87;;;25.60;97.90;;;;;;5055758;28;20449;-59
2022/07/23 06:57:21;;;;;;;8.20;7.50;;;25.50;97.30;;;;;;5056028;28;20447;-58
2022/07/23 06:59:48;;;;;;;7.33;6.63;;;25.80;97.20;;;;;;5055537;28;20497;-60
2022/07/23 07:02:15;;;;;;;6.80;6.20;;;25.70;96.90;;;;;;5055796;28;20452;-59
2022/07/23 07:04:43;;;;;;;7.20;6.60;;;25.70;96.80;;;;;;5055545;28;20967;-59
2022/07/23 07:07:11;;;;;;;7.33;6.73;;;25.60;96.80;;;;;;5055360;28;20827;-59
2022/07/23 07:09:38;;;;;;;7.83;6.97;;;25.60;96.70;;;;;;5055271;28;20981;-59
2022/07/23 07:12:06;;;;;;;7.73;6.90;;;25.50;96.90;;;;;;5054506;28;20532;-59
2022/07/23 07:14:34;;;;;;;7.60;6.57;;;25.60;97.10;;;;;;5055542;28;20442;-60
2022/07/23 07:17:01;;;;;;;6.97;6.40;;;25.70;96.90;;;;;;5055051;28;20477;-59
2022/07/23 07:19:28;;;;;;;6.83;6.17;;;25.60;96.80;;;;;;5055518;28;20567;-59
2022/07/23 07:21:55;;;;;;;7.80;7.10;;;25.50;96.70;;;;;;5055095;28;20941;-59
2022/07/23 07:24:24;;;;;;;6.57;6.07;;;25.40;97.10;;;;;;5045059;28;20496;-57
2022/07/23 07:26:51;;;;;;;6.97;6.37;;;25.20;97.50;;;;;;5041312;28;20481;-58
2022/07/23 07:29:18;;;;;;;7.53;6.67;;;25.10;97.70;;;;;;5043209;28;20552;-57
2022/07/23 07:31:45;;;;;;;8.30;6.83;;;25.00;98.60;;;;;;5035476;28;20891;-61
2022/07/23 07:34:12;;;;;;;7.63;6.57;;;25.00;98.50;;;;;;5041342;28;20908;-59
2022/07/23 07:36:39;;;;;;;7.10;6.50;;;24.80;99.30;;;;;;5055193;28;20774;-62
2022/07/23 07:39:09;;;;;;;9.00;6.57;;;24.80;99.40;;;;;;5054328;28;20444;-61
2022/07/23 07:41:38;;;;;;;7.17;6.47;;;24.80;99.60;;;;;;5037046;28;20490;-60
2022/07/23 07:44:05;;;;;;;8.07;7.37;;;24.60;99.90;;;;;;5034593;28;20534;-60
2022/07/23 07:46:32;;;;;;;7.57;6.93;;;24.50;99.90;;;;;;5044107;28;20492;-58
2022/07/23 07:49:00;;;;;;;8.03;7.33;;;24.70;99.90;;;;;;5051672;28;20459;-57
2022/07/23 07:51:28;;;;;;;8.10;7.40;;;25.10;99.90;;;;;;5049371;28;20518;-57
2022/07/23 07:53:55;;;;;;;7.13;6.43;;;25.30;99.90;;;;;;5046041;28;20476;-58
2022/07/23 07:56:23;;;;;;;6.97;6.37;;;25.90;99.30;;;;;;5049068;28;20817;-59
2022/07/23 07:58:51;;;;;;;7.47;6.87;;;25.80;99.00;;;;;;5045091;28;20474;-60
2022/07/23 08:01:19;;;;;;;6.60;6.00;;;25.70;99.40;;;;;;5047043;28;20485;-63
2022/07/23 08:03:47;;;;;;;6.47;5.87;;;25.90;99.20;;;;;;5045726;28;20461;-62
2022/07/23 08:06:14;;;;;;;7.87;7.17;;;25.90;98.70;;;;;;5045855;28;20588;-61
2022/07/23 08:08:41;;;;;;;6.30;5.70;;;25.80;98.60;;;;;;5047665;28;20468;-58
2022/07/23 08:11:08;;;;;;;7.57;6.97;;;25.80;99.10;;;;;;5044880;28;20845;-60
2022/07/23 08:13:35;;;;;;;7.50;6.83;;;26.10;98.80;;;;;;5044164;28;20798;-65
2022/07/23 08:16:04;;;;;;;7.27;6.57;;;26.10;99.40;;;;;;5042744;28;20458;-67
2022/07/23 08:18:31;;;;;;;8.33;6.87;;;26.90;97.80;;;;;;5050585;28;20441;-56
2022/07/23 08:21:02;;;;;;;7.23;6.60;;;26.90;97.40;;;;;;5050473;28;20977;-60
2022/07/23 08:23:29;;;;;;;6.50;5.87;;;26.60;97.50;;;;;;5050806;28;20463;-57
2022/07/23 08:26:01;;;;;;;7.50;6.80;;;25.80;98.60;;;;;;5052609;28;20475;-56
2022/07/23 08:28:32;;;;;;;7.63;6.83;;;25.40;99.70;;;;;;5050545;28;20758;-59
2022/07/23 08:31:00;;;;;;;8.67;7.70;;;25.10;99.60;;;;;;5041406;28;20489;-58
2022/07/23 08:33:29;;;;;;;7.73;7.13;;;25.30;99.60;;;;;;5051662;28;21032;-59
2022/07/23 08:35:56;;;;;;;8.17;7.43;;;25.50;99.90;;;;;;5051171;28;20457;-55
2022/07/23 08:38:24;;;;;;;7.07;6.47;;;25.50;99.40;;;;;;5049925;28;20932;-56
2022/07/23 08:40:54;;;;;;;7.10;6.27;;;25.40;98.50;;;;;;5039959;28;21099;-58
2022/07/23 08:43:23;;;;;;;7.00;6.43;;;25.80;98.80;;;;;;5049867;28;20469;-60
2022/07/23 08:45:52;;;;;;;6.70;6.10;;;26.80;98.00;;;;;;5048692;28;20496;-57
2022/07/23 08:48:21;;;;;;;6.70;6.10;;;27.40;96.20;;;;;;5044362;28;21013;-59
2022/07/23 08:50:52;;;;;;;7.00;6.30;;;27.20;97.20;;;;;;5048520;28;20480;-59
2022/07/23 08:53:22;;;;;;;7.07;6.37;;;27.70;96.00;;;;;;5049673;28;20542;-60
2022/07/23 08:55:50;;;;;;;7.00;6.40;;;28.30;95.30;;;;;;5049932;28;20536;-59
2022/07/23 08:58:18;;;;;;;7.07;6.50;;;28.40;94.30;;;;;;5052202;28;20449;-60
2022/07/23 09:00:46;;;;;;;6.73;5.97;;;28.50;94.60;;;;;;5048638;28;21044;-60
2022/07/23 09:03:17;;;;;;;7.50;6.80;;;28.90;93.50;;;;;;5050493;28;20481;-58
2022/07/23 09:05:44;;;;;;;6.83;6.23;;;28.20;93.30;;;;;;5049209;28;20477;-59
2022/07/23 09:08:15;;;;;;;10.03;6.90;;;29.00;92.00;;;;;;5046110;28;20494;-59
2022/07/23 09:10:47;;;;;;;6.53;6.03;;;29.80;92.20;;;;;;5049531;28;20469;-59
2022/07/23 09:13:37;;;;;;;6.50;5.90;;;30.00;91.60;;;;;;5051296;28;20449;-54
2022/07/23 09:16:07;;;;;;;7.47;6.77;;;29.90;91.00;;;;;;5050202;28;20476;-59
2022/07/23 09:18:41;;;;;;;7.27;6.67;;;29.90;90.50;;;;;;5048380;28;20801;-59
2022/07/23 09:21:22;;;;;;;9.37;6.80;;;29.70;89.80;;;;;;5046843;28;20481;-61
2022/07/23 09:23:54;;;;;;;6.33;5.83;;;29.80;89.40;;;;;;5050135;28;20450;-59
2022/07/23 09:26:30;;;;;;;7.20;6.50;;;29.40;90.10;;;;;;5045331;28;20528;-60
2022/07/23 09:29:09;;;;;;;9.33;6.53;;;28.60;90.00;;;;;;5050493;28;20464;-61
2022/07/23 09:31:45;;;;;;;7.10;6.60;;;29.10;91.10;;;;;;5047921;28;20461;-59
2022/07/23 09:34:14;;;;;;;7.37;6.63;;;29.60;90.00;;;;;;5051708;28;20449;-55
2022/07/23 09:36:44;;;;;;;6.60;6.10;;;29.90;88.50;;;;;;5045000;28;20544;-55
2022/07/23 09:39:14;;;;;;;7.47;6.87;;;29.90;87.30;;;;;;5050954;28;20449;-57
2022/07/23 09:41:44;;;;;;;9.27;6.00;;;29.70;87.00;;;;;;5049680;28;20564;-56
2022/07/23 09:44:17;;;;;;;6.83;6.33;;;29.80;86.70;;;;;;5048601;28;20468;-56
2022/07/23 09:46:45;;;;;;;6.53;5.70;;;29.90;86.00;;;;;;5047822;28;20878;-60
2022/07/23 09:49:19;;;;;;;6.70;6.20;;;30.10;84.30;;;;;;5050584;28;20446;-58
2022/07/23 09:51:53;;;;;;;6.57;6.00;;;30.80;84.90;;;;;;5028131;28;20976;-59
2022/07/23 09:54:35;;;;;;;12.87;6.60;;;31.00;82.00;;;;;;5048508;28;20939;-57
2022/07/23 09:57:06;;;;;;;6.83;6.20;;;31.20;83.50;;;;;;5046697;28;20994;-57
2022/07/23 09:59:35;;;;;;;10.30;7.07;;;31.20;84.20;;;;;;5048236;28;20556;-60
2022/07/23 10:02:04;;;;;;;6.83;6.13;;;31.20;83.00;;;;;;5049254;28;20890;-60
2022/07/23 10:04:32;;;;;;;11.73;6.60;;;31.60;83.60;;;;;;5049057;28;20552;-59
2022/07/23 10:07:03;;;;;;;6.17;5.67;;;31.20;82.20;;;;;;5045606;28;20542;-61
2022/07/23 10:09:33;;;;;;;6.83;6.20;;;31.60;80.80;;;;;;5047823;28;20515;-57
2022/07/23 10:14:50;;;;;;;6.03;5.63;;;31.90;77.10;;;;;;5012624;28;20453;-58
2022/07/23 10:17:18;;;;;;;6.70;6.17;;;31.40;75.80;;;;;;5046876;28;20465;-57
2022/07/23 10:19:46;;;;;;;7.00;6.27;;;31.80;75.10;;;;;;5046377;28;21017;-62
2022/07/23 10:22:20;;;;;;;6.37;5.87;;;31.70;75.30;;;;;;5044953;28;20469;-63
2022/07/23 10:25:18;;;;;;;7.37;6.67;;;31.50;75.10;;;;;;5046518;28;20551;-63
2022/07/23 10:27:57;;;;;;;6.43;5.67;;;32.00;75.10;;;;;;5030597;28;20480;-59
2022/07/23 10:30:32;;;;;;;5.83;5.33;;;32.20;73.90;;;;;;5046581;28;20519;-60
2022/07/23 10:33:15;;;;;;;7.07;5.47;;;32.00;72.90;;;;;;5044300;28;20915;-65
2022/07/23 10:35:49;;;;;;;5.80;5.40;;;31.70;72.40;;;;;;5046516;28;20532;-65
2022/07/23 10:38:22;;;;;;;7.20;6.50;;;32.10;71.70;;;;;;5040731;28;20464;-65
2022/07/23 10:40:59;;;;;;;8.00;5.83;;;31.90;71.90;;;;;;5049836;28;20852;-65
2022/07/23 10:43:27;;;;;;;7.73;6.03;;;32.00;71.00;;;;;;5047063;28;20488;-65
2022/07/23 10:45:55;;;;;;;6.20;5.70;;;32.20;70.50;;;;;;5044470;28;20520;-65
2022/07/23 10:48:25;;;;;;;6.20;5.70;;;32.00;68.30;;;;;;5040282;28;20559;-65
2022/07/23 10:51:09;;;;;;;6.13;5.57;;;31.60;68.40;;;;;;5051896;28;20527;-64
2022/07/23 10:53:57;;;;;;;5.73;5.30;;;32.20;68.40;;;;;;5036812;28;20505;-64
2022/07/23 10:57:08;;;;;;;6.37;5.87;;;32.00;67.40;;;;;;5054913;28;20940;-64
2022/07/23 11:00:09;;;;;;;7.07;6.47;;;31.80;66.80;;;;;;5052265;28;20829;-62
2022/07/23 11:02:36;;;;;;;5.80;5.30;;;32.50;68.20;;;;;;5047686;28;20547;-54
2022/07/23 11:05:07;;;;;;;6.30;5.80;;;32.00;68.00;;;;;;5044573;28;20852;-56
2022/07/23 11:07:35;;;;;;;6.37;5.87;;;32.00;69.70;;;;;;5038368;28;20556;-56
2022/07/23 11:10:03;;;;;;;8.27;6.20;;;31.90;69.30;;;;;;5035122;28;20509;-56
2022/07/23 11:12:38;;;;;;;6.33;5.83;;;32.20;67.80;;;;;;5035260;28;20460;-57
2022/07/23 11:15:08;;;;;;;6.37;5.87;;;32.80;67.30;;;;;;5046065;28;20455;-56
2022/07/23 11:17:37;;;;;;;6.00;5.53;;;32.60;67.10;;;;;;5052995;28;20429;-56
2022/07/23 11:20:21;;;;;;;6.30;5.80;;;32.50;69.70;;;;;;5054587;28;20907;-57
2022/07/23 11:22:51;;;;;;;6.07;5.47;;;31.10;70.10;;;;;;5054970;28;20520;-57
2022/07/23 11:25:35;;;;;;;6.83;6.33;;;31.30;71.90;;;;;;5044129;28;20450;-57
2022/07/23 11:28:13;;;;;;;6.40;5.90;;;31.60;70.70;;;;;;5035188;28;20466;-56
2022/07/23 11:30:42;;;;;;;5.87;5.37;;;32.20;70.80;;;;;;5048903;28;20897;-56
2022/07/23 11:33:21;;;;;;;7.40;6.03;;;32.00;71.70;;;;;;5054161;28;20480;-56
2022/07/23 11:35:50;;;;;;;6.80;5.87;;;31.40;71.20;;;;;;5053072;28;20468;-56
2022/07/23 11:38:24;;;;;;;6.40;5.90;;;30.90;72.70;;;;;;5045441;28;20524;-56
2022/07/23 11:40:52;;;;;;;7.47;6.80;;;;;;;;;;5051928;28;20489;-56
2022/07/23 11:43:21;;;;;;;7.07;6.37;;;30.30;94.50;;;;;;5052700;28;20543;-56
2022/07/23 11:45:51;;;;;;;6.70;6.10;;;30.60;76.40;;;;;;5046213;28;20453;-56
2022/07/23 11:48:22;;;;;;;7.50;6.90;;;31.40;73.80;;;;;;5042990;28;20481;-56
2022/07/23 11:50:50;;;;;;;6.97;6.30;;;31.70;72.60;;;;;;5042358;28;20469;-56
2022/07/23 11:53:23;;;;;;;6.60;6.00;;;31.50;72.90;;;;;;5050375;28;20823;-57
2022/07/23 11:55:51;;;;;;;6.30;5.70;;;32.00;73.00;;;;;;5051011;28;20428;-56
2022/07/23 11:58:20;;;;;;;7.37;6.77;;;32.80;71.40;;;;;;5049861;28;20540;-56
2022/07/23 12:00:47;;;;;;;6.30;5.90;;;33.20;71.30;;;;;;5050644;28;20492;-57
2022/07/23 12:03:14;;;;;;;6.30;5.80;;;32.80;70.60;;;;;;5051001;28;20481;-57
2022/07/23 12:05:42;;;;;;;7.20;6.60;;;32.80;70.20;;;;;;5050698;28;20476;-57
2022/07/23 12:08:11;;;;;;;7.40;6.80;;;32.90;69.80;;;;;;5050569;28;20588;-57
2022/07/23 12:10:41;;;;;;;6.90;6.40;;;33.10;70.70;;;;;;5050253;28;20472;-57
2022/07/23 12:13:11;;;;;;;6.93;6.33;;;33.50;69.10;;;;;;5051955;28;20437;-57
2022/07/23 12:15:41;;;;;;;6.40;5.90;;;32.50;69.90;;;;;;5050688;28;20484;-56
2022/07/23 12:18:10;;;;;;;7.40;6.67;;;32.20;69.30;;;;;;5051950;28;20435;-56
2022/07/23 12:20:39;;;;;;;7.27;6.67;;;32.50;69.60;;;;;;5052682;28;20976;-57
2022/07/23 12:23:08;;;;;;;6.10;5.60;;;32.30;69.20;;;;;;5053565;28;20445;-56
2022/07/23 12:25:36;;;;;;;6.50;6.00;;;32.30;69.70;;;;;;5053512;28;20441;-56
2022/07/23 12:28:07;;;;;;;6.57;6.07;;;32.20;68.70;;;;;;5054017;28;20513;-56
2022/07/23 12:30:38;;;;;;;6.57;5.97;;;32.30;68.50;;;;;;5053686;28;20598;-57
2022/07/23 12:33:09;;;;;;;7.20;6.57;;;32.50;68.20;;;;;;5053688;28;20532;-57
2022/07/23 12:35:40;;;;;;;6.43;5.83;;;32.30;68.30;;;;;;5054116;28;20480;-57
2022/07/23 12:38:09;;;;;;;6.30;5.83;;;32.00;68.20;;;;;;5053961;28;20787;-57
2022/07/23 12:40:38;;;;;;;7.60;7.00;;;32.40;68.10;;;;;;5053291;28;20481;-56
2022/07/23 12:43:07;;;;;;;7.27;6.67;;;32.40;69.50;;;;;;5054014;28;20512;-56
2022/07/23 12:45:46;;;;;;;7.83;7.23;;;32.40;68.80;;;;;;5053749;28;20526;-57
2022/07/23 12:48:21;;;;;;;7.13;6.53;;;32.30;69.00;;;;;;5053430;28;20817;-57
2022/07/23 12:50:53;;;;;;;7.80;6.47;;;32.70;68.80;;;;;;5053680;28;20902;-57
2022/07/23 12:53:23;;;;;;;6.80;6.30;;;32.20;68.30;;;;;;5053944;28;20515;-56
2022/07/23 12:55:51;;;;;;;8.00;7.30;;;31.70;69.20;;;;;;5054015;28;20459;-56
2022/07/23 12:58:20;;;;;;;7.17;6.67;;;31.80;71.40;;;;;;5053548;28;20532;-56
2022/07/23 13:01:08;;;;;;;8.20;7.40;;;32.00;71.30;;;;;;5053237;28;20526;-56